createdAt,value
2017-12-19T00:00:49.275Z,49.70
2017-12-19T00:03:18.058Z,49.80
2017-12-19T00:05:46.864Z,49.80
2017-12-19T00:08:14.879Z,49.80
2017-12-19T00:10:43.019Z,49.70
2017-12-19T00:13:11.037Z,49.70
2017-12-19T00:15:39.048Z,49.70
2017-12-19T00:18:07.069Z,49.70
2017-12-19T00:20:35.116Z,49.80
2017-12-19T00:23:03.191Z,49.80
2017-12-19T00:25:31.311Z,49.80
2017-12-19T00:28:00.079Z,49.80
2017-12-19T00:30:28.112Z,49.80
2017-12-19T00:32:56.126Z,49.70
2017-12-19T00:35:24.169Z,49.70
2017-12-19T00:37:52.210Z,49.80
2017-12-19T00:40:20.202Z,49.90
2017-12-19T00:42:48.187Z,49.70
2017-12-19T00:45:16.175Z,49.70
2017-12-19T00:47:44.186Z,49.70
2017-12-19T00:50:12.208Z,49.70
2017-12-19T00:52:40.270Z,49.60
2017-12-19T00:55:08.267Z,49.70
2017-12-19T00:57:37.059Z,49.60
2017-12-19T01:00:05.830Z,49.70
2017-12-19T01:02:33.851Z,49.70
2017-12-19T01:05:01.876Z,49.70
2017-12-19T01:07:29.886Z,49.80
2017-12-19T01:09:57.953Z,49.80
2017-12-19T01:12:25.947Z,49.90
2017-12-19T01:14:53.940Z,49.90
2017-12-19T01:17:21.968Z,49.90
2017-12-19T01:19:50.054Z,49.80
2017-12-19T01:22:18.030Z,49.80
2017-12-19T01:24:46.119Z,49.80
2017-12-19T01:27:14.363Z,49.90
2017-12-19T01:29:42.291Z,49.80
2017-12-19T01:32:10.282Z,49.70
2017-12-19T01:34:39.011Z,49.70
2017-12-19T01:37:07.006Z,49.70
2017-12-19T01:39:34.999Z,49.80
2017-12-19T01:42:04.104Z,49.80
2017-12-19T01:44:32.950Z,49.90
2017-12-19T01:47:00.934Z,49.90
2017-12-19T01:49:28.915Z,49.90
2017-12-19T01:51:57.715Z,49.90
2017-12-19T01:54:26.462Z,49.90
2017-12-19T01:56:54.519Z,49.90
2017-12-19T01:59:22.504Z,49.80
2017-12-19T02:01:50.498Z,49.90
2017-12-19T02:04:18.524Z,50.00
2017-12-19T02:06:46.520Z,50.00
2017-12-19T02:09:14.532Z,50.10
2017-12-19T02:11:43.266Z,50.80
2017-12-19T02:14:11.283Z,50.10
2017-12-19T02:16:42.082Z,50.30
2017-12-19T02:19:10.188Z,50.30
2017-12-19T02:21:39.038Z,50.40
2017-12-19T02:24:07.122Z,50.40
2017-12-19T02:26:35.227Z,50.30
2017-12-19T02:29:04.093Z,50.20
2017-12-19T02:31:32.170Z,50.20
2017-12-19T02:34:00.279Z,50.10
2017-12-19T02:36:28.344Z,50.10
2017-12-19T02:38:56.418Z,50.20
2017-12-19T02:41:24.490Z,50.40
2017-12-19T02:43:52.567Z,50.40
2017-12-19T02:46:20.633Z,50.40
2017-12-19T02:48:48.726Z,50.30
2017-12-19T02:51:16.795Z,50.30
2017-12-19T02:53:44.883Z,50.30
2017-12-19T02:56:12.963Z,50.30
2017-12-19T02:58:40.998Z,50.20
2017-12-19T03:01:09.028Z,50.30
2017-12-19T03:03:37.341Z,50.30
2017-12-19T03:06:05.431Z,50.40
2017-12-19T03:08:33.519Z,50.40
2017-12-19T03:11:01.595Z,50.60
2017-12-19T03:13:29.675Z,50.80
2017-12-19T03:15:57.732Z,50.70
2017-12-19T03:18:25.808Z,50.60
2017-12-19T03:20:53.893Z,50.50
2017-12-19T03:23:22.021Z,50.60
2017-12-19T03:25:50.122Z,50.50
2017-12-19T03:28:18.235Z,50.40
2017-12-19T03:30:47.096Z,50.10
2017-12-19T03:33:15.179Z,50.10
2017-12-19T03:35:43.247Z,50.10
2017-12-19T03:38:11.350Z,50.30
2017-12-19T03:40:40.834Z,50.30
2017-12-19T03:43:08.901Z,50.30
2017-12-19T03:45:36.955Z,50.20
2017-12-19T03:48:05.942Z,50.30
2017-12-19T03:50:34.282Z,50.30
2017-12-19T03:53:02.882Z,50.30
2017-12-19T03:55:30.971Z,50.40
2017-12-19T03:57:59.570Z,50.40
2017-12-19T04:00:28.057Z,50.60
2017-12-19T04:02:56.230Z,50.70
2017-12-19T04:05:25.138Z,50.70
2017-12-19T04:07:53.838Z,50.70
2017-12-19T04:10:22.685Z,50.80
2017-12-19T04:12:50.774Z,50.90
2017-12-19T04:15:18.843Z,50.80
2017-12-19T04:17:46.928Z,50.80
2017-12-19T04:20:15.588Z,50.80
2017-12-19T04:22:44.423Z,50.80
2017-12-19T04:25:13.250Z,51.00
2017-12-19T04:27:41.344Z,51.00
2017-12-19T04:30:09.372Z,51.00
2017-12-19T04:32:37.430Z,51.00
2017-12-19T04:35:06.278Z,51.10
2017-12-19T04:37:34.312Z,51.10
2017-12-19T04:40:02.399Z,51.20
2017-12-19T04:42:30.462Z,51.10
2017-12-19T04:44:58.450Z,51.10
2017-12-19T04:47:26.570Z,51.00
2017-12-19T04:49:55.987Z,51.20
2017-12-19T04:52:24.049Z,51.10
2017-12-19T04:54:52.880Z,51.20
2017-12-19T04:57:21.257Z,51.10
2017-12-19T04:59:49.393Z,51.10
2017-12-19T05:02:18.210Z,51.30
2017-12-19T05:04:46.788Z,51.30
2017-12-19T05:07:14.899Z,51.30
2017-12-19T05:09:43.434Z,51.20
2017-12-19T05:12:11.549Z,51.20
2017-12-19T05:14:39.651Z,51.40
2017-12-19T05:17:07.773Z,51.40
2017-12-19T05:19:35.950Z,51.50
2017-12-19T05:22:04.099Z,51.40
2017-12-19T05:24:32.203Z,51.40
2017-12-19T05:27:00.299Z,51.40
2017-12-19T05:29:28.658Z,51.40
2017-12-19T05:31:56.744Z,51.60
2017-12-19T05:34:24.837Z,51.60
2017-12-19T05:36:52.950Z,51.50
2017-12-19T05:39:21.055Z,51.50
2017-12-19T05:41:49.130Z,51.60
2017-12-19T05:44:17.270Z,51.60
2017-12-19T05:46:45.327Z,51.50
2017-12-19T05:49:13.426Z,51.50
2017-12-19T05:51:41.597Z,51.60
2017-12-19T05:54:09.700Z,51.60
2017-12-19T05:56:38.381Z,51.60
2017-12-19T05:59:06.458Z,51.60
2017-12-19T06:01:35.394Z,51.70
2017-12-19T06:04:03.994Z,51.70
2017-12-19T06:06:32.918Z,51.70
2017-12-19T06:09:01.777Z,51.70
2017-12-19T06:11:30.731Z,51.70
2017-12-19T06:14:00.406Z,51.50
2017-12-19T06:16:28.510Z,51.50
2017-12-19T06:18:57.373Z,51.60
2017-12-19T06:21:26.270Z,51.50
2017-12-19T06:23:54.770Z,51.70
2017-12-19T06:26:23.542Z,52.50
2017-12-19T06:28:51.588Z,51.90
2017-12-19T06:31:19.627Z,51.90
2017-12-19T06:33:47.743Z,51.80
2017-12-19T06:36:15.840Z,51.70
2017-12-19T06:38:43.910Z,51.70
2017-12-19T06:41:12.894Z,51.60
2017-12-19T06:43:40.943Z,51.50
2017-12-19T06:46:09.032Z,51.50
2017-12-19T06:48:37.323Z,51.50
2017-12-19T06:51:05.441Z,51.70
2017-12-19T06:53:33.459Z,51.60
2017-12-19T06:56:01.615Z,51.60
2017-12-19T06:58:29.696Z,51.60
2017-12-19T07:00:57.830Z,51.60
2017-12-19T07:03:25.878Z,51.50
2017-12-19T07:05:55.628Z,51.40
2017-12-19T07:08:23.762Z,51.40
2017-12-19T07:10:52.595Z,51.50
2017-12-19T07:13:20.639Z,52.10
2017-12-19T07:15:48.738Z,52.10
2017-12-19T07:18:16.790Z,51.50
2017-12-19T07:20:44.834Z,51.70
2017-12-19T07:23:13.675Z,52.30
2017-12-19T07:25:41.748Z,52.20
2017-12-19T07:28:09.778Z,52.40
2017-12-19T07:30:38.619Z,52.40
2017-12-19T07:33:06.698Z,52.30
2017-12-19T07:35:34.740Z,52.40
2017-12-19T07:38:03.587Z,52.30
2017-12-19T07:40:33.374Z,52.20
2017-12-19T07:43:01.470Z,52.20
2017-12-19T07:45:30.339Z,51.70
2017-12-19T07:47:59.251Z,51.70
2017-12-19T07:50:28.406Z,51.20
2017-12-19T07:52:56.461Z,51.20
2017-12-19T07:55:24.454Z,51.20
2017-12-19T07:57:53.567Z,51.20
2017-12-19T08:00:21.559Z,51.20
2017-12-19T08:02:50.368Z,51.10
2017-12-19T08:05:18.388Z,51.10
2017-12-19T08:07:47.330Z,50.80
2017-12-19T08:10:15.482Z,50.30
2017-12-19T08:12:45.218Z,50.10
2017-12-19T08:15:13.624Z,50.10
2017-12-19T08:17:41.825Z,50.20
2017-12-19T08:20:10.722Z,49.40
2017-12-19T08:22:38.719Z,49.50
2017-12-19T08:25:07.503Z,49.80
2017-12-19T08:27:36.358Z,49.50
2017-12-19T08:30:05.281Z,49.50
2017-12-19T08:32:34.047Z,49.30
2017-12-19T08:35:02.035Z,49.30
2017-12-19T08:37:30.816Z,49.60
2017-12-19T08:39:58.780Z,49.60
2017-12-19T08:42:26.783Z,49.50
2017-12-19T08:44:54.782Z,49.70
2017-12-19T08:47:22.779Z,49.30
2017-12-19T08:49:50.802Z,49.10
2017-12-19T08:52:18.924Z,49.00
2017-12-19T08:54:46.934Z,48.60
2017-12-19T08:57:17.278Z,48.50
2017-12-19T08:59:47.184Z,48.70
2017-12-19T09:05:07.382Z,48.70
2017-12-19T09:07:35.610Z,48.40
2017-12-19T09:10:04.555Z,48.40
2017-12-19T09:15:20.081Z,48.60
2017-12-19T09:17:50.414Z,48.90
2017-12-19T09:20:27.188Z,48.80
2017-12-19T09:23:01.868Z,48.50
2017-12-19T09:25:32.780Z,48.10
2017-12-19T09:28:07.889Z,48.00
2017-12-19T09:30:39.653Z,48.00
2017-12-19T09:33:11.661Z,47.80
2017-12-19T09:35:43.314Z,47.60
2017-12-19T09:41:36.080Z,47.40
2017-12-19T09:44:11.630Z,47.40
2017-12-19T09:46:43.768Z,47.30
2017-12-19T09:49:19.483Z,47.30
2017-12-19T09:51:50.999Z,47.30
2017-12-19T09:54:22.562Z,47.20
2017-12-19T09:56:56.762Z,46.90
2017-12-19T09:59:28.914Z,46.80
2017-12-19T10:02:00.817Z,46.80
2017-12-19T10:04:34.347Z,46.50
2017-12-19T10:07:06.210Z,46.50
2017-12-19T10:09:38.272Z,46.30
2017-12-19T10:12:13.972Z,46.10
2017-12-19T10:14:54.848Z,46.00
2017-12-19T10:20:05.990Z,45.00
2017-12-19T10:25:37.926Z,44.60
2017-12-19T10:28:09.870Z,44.50
2017-12-19T10:30:41.897Z,44.50
2017-12-19T10:33:14.747Z,44.40
2017-12-19T10:35:48.188Z,44.00
2017-12-19T10:38:20.378Z,44.00
2017-12-19T10:40:52.594Z,43.80
2017-12-19T10:43:23.232Z,43.50
2017-12-19T10:45:54.697Z,43.30
2017-12-19T10:48:27.293Z,43.20
2017-12-19T10:51:04.827Z,43.10
2017-12-19T10:53:35.890Z,43.00
2017-12-19T10:56:07.101Z,43.00
2017-12-19T10:58:38.989Z,42.80
2017-12-19T11:03:46.529Z,42.60
2017-12-19T11:06:19.350Z,42.40
2017-12-19T11:08:50.558Z,42.30
2017-12-19T11:13:58.800Z,42.10
2017-12-19T11:19:10.370Z,42.00
2017-12-19T11:21:48.536Z,41.90
2017-12-19T11:24:31.185Z,41.80
2017-12-19T11:27:04.571Z,41.80
2017-12-19T11:29:44.987Z,41.80
2017-12-19T11:32:13.283Z,41.80
2017-12-19T11:34:41.414Z,41.70
2017-12-19T11:37:09.531Z,41.60
2017-12-19T11:39:37.627Z,41.60
2017-12-19T11:42:06.463Z,41.30
2017-12-19T11:44:39.303Z,41.30
2017-12-19T11:47:15.351Z,41.30
2017-12-19T11:52:32.177Z,41.30
2017-12-19T11:55:04.697Z,41.30
2017-12-19T11:57:32.805Z,41.20
2017-12-19T12:00:00.834Z,41.20
2017-12-19T12:02:28.891Z,41.20
2017-12-19T12:04:56.902Z,41.10
2017-12-19T12:07:24.945Z,41.10
2017-12-19T12:09:52.963Z,41.10
2017-12-19T12:12:21.007Z,41.10
2017-12-19T12:14:49.001Z,41.10
2017-12-19T12:17:17.035Z,41.10
2017-12-19T12:19:45.039Z,41.10
2017-12-19T12:22:13.073Z,41.10
2017-12-19T12:24:41.092Z,41.10
2017-12-19T12:27:09.139Z,41.10
2017-12-19T12:29:37.146Z,41.10
2017-12-19T12:32:05.934Z,41.00
2017-12-19T12:34:34.734Z,41.10
2017-12-19T12:37:03.550Z,40.90
2017-12-19T12:39:31.557Z,40.90
2017-12-19T12:41:59.563Z,40.90
2017-12-19T12:44:28.359Z,41.00
2017-12-19T12:46:56.418Z,41.00
2017-12-19T12:49:25.219Z,40.90
2017-12-19T12:51:53.231Z,40.90
2017-12-19T12:54:21.251Z,41.00
2017-12-19T12:56:49.983Z,41.00
2017-12-19T12:59:18.070Z,41.00
2017-12-19T13:01:46.182Z,41.10
2017-12-19T13:04:15.006Z,41.10
2017-12-19T13:06:43.075Z,41.20
2017-12-19T13:09:11.075Z,41.20
2017-12-19T13:11:39.221Z,41.20
2017-12-19T13:14:07.292Z,41.30
2017-12-19T13:16:35.850Z,41.40
2017-12-19T13:19:03.850Z,41.40
2017-12-19T13:21:31.890Z,41.30
2017-12-19T13:23:59.882Z,41.40
2017-12-19T13:26:27.862Z,41.40
2017-12-19T13:28:55.889Z,41.40
2017-12-19T13:31:24.624Z,41.50
2017-12-19T13:33:52.607Z,41.50
2017-12-19T13:36:20.607Z,41.50
2017-12-19T13:38:49.377Z,41.60
2017-12-19T13:41:17.391Z,41.60
2017-12-19T13:43:45.410Z,41.60
2017-12-19T13:46:13.404Z,41.60
2017-12-19T13:48:42.188Z,41.70
2017-12-19T13:51:10.207Z,41.70
2017-12-19T13:53:38.222Z,41.60
2017-12-19T13:56:06.222Z,41.60
2017-12-19T13:58:35.068Z,41.60
2017-12-19T14:01:03.071Z,41.70
2017-12-19T14:03:31.870Z,41.80
2017-12-19T14:05:59.899Z,41.80
2017-12-19T14:08:27.888Z,41.70
2017-12-19T14:10:55.917Z,41.80
2017-12-19T14:13:23.948Z,41.80
2017-12-19T14:15:52.735Z,41.80
2017-12-19T14:18:21.514Z,41.70
2017-12-19T14:20:50.296Z,41.70
2017-12-19T14:23:18.368Z,41.70
2017-12-19T14:25:46.394Z,41.70
2017-12-19T14:28:14.439Z,41.70
2017-12-19T14:30:42.450Z,41.80
2017-12-19T14:33:10.461Z,42.70
2017-12-19T14:35:39.241Z,42.70
2017-12-19T14:38:08.009Z,42.70
2017-12-19T14:40:35.992Z,43.30
2017-12-19T14:43:03.979Z,42.70
2017-12-19T14:45:32.766Z,42.80
2017-12-19T14:48:01.625Z,42.80
2017-12-19T14:50:29.654Z,42.80
2017-12-19T14:52:57.670Z,42.80
2017-12-19T14:55:25.803Z,42.70
2017-12-19T14:57:53.803Z,42.80
2017-12-19T15:00:21.855Z,42.80
2017-12-19T15:02:49.919Z,42.70
2017-12-19T15:05:17.918Z,42.70
2017-12-19T15:07:45.932Z,42.70
2017-12-19T15:10:14.735Z,42.70
2017-12-19T15:12:42.714Z,42.70
2017-12-19T15:15:10.720Z,42.60
2017-12-19T15:17:38.760Z,42.70
2017-12-19T15:20:06.763Z,42.70
2017-12-19T15:22:34.754Z,42.70
2017-12-19T15:25:02.754Z,42.80
2017-12-19T15:27:30.732Z,42.80
2017-12-19T15:29:58.733Z,42.90
2017-12-19T15:32:26.725Z,43.40
2017-12-19T15:34:54.698Z,42.80
2017-12-19T15:37:22.722Z,42.80
2017-12-19T15:39:50.727Z,42.90
2017-12-19T15:42:18.778Z,42.80
2017-12-19T15:44:46.814Z,42.70
2017-12-19T15:47:14.917Z,42.80
2017-12-19T15:49:42.944Z,42.80
2017-12-19T15:52:11.702Z,42.80
2017-12-19T15:54:39.719Z,42.80
2017-12-19T15:57:07.721Z,42.90
2017-12-19T15:59:35.729Z,42.90
2017-12-19T16:02:03.714Z,43.00
2017-12-19T16:04:32.522Z,43.00
2017-12-19T16:07:00.495Z,42.90
2017-12-19T16:09:28.488Z,43.00
2017-12-19T16:11:56.510Z,43.00
2017-12-19T16:14:24.566Z,43.10
2017-12-19T16:16:52.615Z,43.10
2017-12-19T16:19:20.624Z,43.10
2017-12-19T16:21:49.374Z,43.20
2017-12-19T16:24:17.375Z,43.20
2017-12-19T16:26:46.135Z,43.40
2017-12-19T16:29:14.228Z,43.40
2017-12-19T16:31:42.250Z,43.30
2017-12-19T16:34:10.255Z,43.30
2017-12-19T16:36:43.119Z,43.40
2017-12-19T16:39:22.961Z,43.30
2017-12-19T16:42:03.381Z,43.30
2017-12-19T16:44:45.482Z,43.40
2017-12-19T16:47:23.404Z,43.40
2017-12-19T16:50:04.068Z,43.40
2017-12-19T16:52:43.457Z,43.50
2017-12-19T16:55:24.350Z,43.50
2017-12-19T16:58:06.180Z,43.60
2017-12-19T17:03:23.070Z,43.70
2017-12-19T17:06:01.223Z,43.70
2017-12-19T17:08:35.311Z,43.70
2017-12-19T17:11:16.415Z,43.80
2017-12-19T17:13:53.482Z,43.80
2017-12-19T17:16:28.913Z,44.00
2017-12-19T17:19:14.045Z,44.10
2017-12-19T17:21:53.385Z,44.10
2017-12-19T17:24:34.232Z,44.10
2017-12-19T17:27:14.415Z,44.10
2017-12-19T17:29:54.623Z,44.10
2017-12-19T17:32:27.229Z,44.10
2017-12-19T17:35:08.179Z,44.30
2017-12-19T17:37:48.505Z,44.30
2017-12-19T17:40:28.442Z,44.40
2017-12-19T17:43:10.050Z,44.40
2017-12-19T17:45:50.359Z,44.50
2017-12-19T17:48:30.887Z,44.50
2017-12-19T17:51:05.422Z,44.60
2017-12-19T17:53:44.895Z,44.60
2017-12-19T17:56:25.717Z,44.70
2017-12-19T17:58:58.265Z,44.80
2017-12-19T18:01:38.292Z,44.80
2017-12-19T18:04:06.847Z,44.70
2017-12-19T18:06:48.040Z,44.80
2017-12-19T18:09:29.559Z,44.90
2017-12-19T18:12:10.169Z,44.90
2017-12-19T18:14:38.197Z,45.10
2017-12-19T18:17:06.197Z,45.10
2017-12-19T18:19:34.936Z,45.20
2017-12-19T18:22:02.935Z,45.10
2017-12-19T18:24:30.970Z,45.20
2017-12-19T18:26:58.976Z,45.30
2017-12-19T18:29:26.955Z,45.30
2017-12-19T18:31:55.708Z,45.30
2017-12-19T18:34:23.717Z,45.30
2017-12-19T18:36:52.511Z,45.40
2017-12-19T18:39:21.271Z,45.40
2017-12-19T18:42:02.472Z,45.40
2017-12-19T18:44:44.583Z,45.40
2017-12-19T18:47:25.932Z,45.40
2017-12-19T18:50:04.269Z,45.30
2017-12-19T18:52:38.388Z,45.60
2017-12-19T18:55:20.191Z,45.50
2017-12-19T18:58:01.053Z,45.50
2017-12-19T19:00:43.036Z,45.60
2017-12-19T19:03:24.424Z,45.70
2017-12-19T19:06:06.375Z,45.70
2017-12-19T19:08:47.083Z,45.70
2017-12-19T19:11:27.907Z,45.80
2017-12-19T19:13:55.906Z,45.80
2017-12-19T19:16:23.994Z,45.80
2017-12-19T19:19:05.765Z,45.90
2017-12-19T19:21:48.076Z,45.80
2017-12-19T19:24:30.555Z,45.80
2017-12-19T19:27:01.350Z,45.80
2017-12-19T19:29:30.414Z,46.00
2017-12-19T19:31:59.903Z,46.00
2017-12-19T19:34:28.386Z,46.10
2017-12-19T19:36:56.373Z,46.10
2017-12-19T19:39:24.351Z,46.20
2017-12-19T19:41:53.377Z,46.20
2017-12-19T19:44:21.471Z,46.20
2017-12-19T19:47:02.976Z,46.30
2017-12-19T19:49:31.771Z,46.20
2017-12-19T19:51:59.852Z,46.30
2017-12-19T19:54:27.947Z,46.30
2017-12-19T19:57:00.120Z,46.40
2017-12-19T19:59:28.867Z,46.50
2017-12-19T20:01:57.135Z,46.50
2017-12-19T20:04:25.158Z,46.50
2017-12-19T20:06:53.939Z,46.50
2017-12-19T20:09:22.966Z,46.60
2017-12-19T20:11:51.285Z,46.60
2017-12-19T20:14:19.915Z,46.60
2017-12-19T20:16:48.095Z,46.70
2017-12-19T20:19:17.056Z,46.60
2017-12-19T20:21:45.054Z,46.70
2017-12-19T20:24:13.716Z,46.70
2017-12-19T20:26:43.406Z,46.80
2017-12-19T20:29:11.442Z,46.80
2017-12-19T20:31:39.507Z,46.80
2017-12-19T20:34:07.514Z,46.80
2017-12-19T20:36:35.502Z,46.80
2017-12-19T20:39:03.623Z,46.90
2017-12-19T20:41:31.739Z,46.90
2017-12-19T20:43:59.754Z,47.00
2017-12-19T20:46:27.749Z,47.00
2017-12-19T20:48:56.635Z,47.10
2017-12-19T20:51:24.646Z,47.10
2017-12-19T20:53:52.667Z,47.20
2017-12-19T20:56:20.672Z,47.20
2017-12-19T20:58:48.735Z,47.20
2017-12-19T21:01:16.750Z,47.30
2017-12-19T21:03:45.530Z,47.40
2017-12-19T21:06:14.982Z,47.50
2017-12-19T21:08:42.967Z,47.40
2017-12-19T21:11:10.966Z,47.50
2017-12-19T21:13:38.955Z,47.50
2017-12-19T21:16:07.729Z,47.50
2017-12-19T21:18:36.485Z,47.50
2017-12-19T21:21:04.493Z,47.50
2017-12-19T21:23:34.165Z,47.50
2017-12-19T21:26:02.137Z,47.50
2017-12-19T21:28:30.659Z,47.60
2017-12-19T21:30:59.474Z,47.60
2017-12-19T21:33:27.483Z,47.60
2017-12-19T21:35:55.476Z,47.60
2017-12-19T21:38:23.439Z,47.60
2017-12-19T21:40:51.445Z,47.60
2017-12-19T21:43:19.428Z,47.60
2017-12-19T21:45:47.419Z,47.60
2017-12-19T21:48:15.395Z,47.70
2017-12-19T21:50:43.386Z,47.70
2017-12-19T21:53:11.523Z,47.70
2017-12-19T21:55:39.496Z,47.70
2017-12-19T21:58:07.484Z,47.70
2017-12-19T22:00:35.509Z,47.70
2017-12-19T22:03:03.511Z,47.70
2017-12-19T22:05:31.878Z,47.70
2017-12-19T22:07:59.862Z,47.70
2017-12-19T22:10:27.904Z,47.70
2017-12-19T22:12:55.915Z,47.70
2017-12-19T22:15:23.917Z,47.70
2017-12-19T22:17:52.655Z,47.80
2017-12-19T22:20:21.546Z,47.80
2017-12-19T22:22:49.525Z,47.80
2017-12-19T22:25:17.530Z,47.80
2017-12-19T22:27:46.299Z,47.80
2017-12-19T22:30:14.359Z,47.80
2017-12-19T22:32:42.991Z,47.80
2017-12-19T22:35:10.957Z,47.70
2017-12-19T22:37:39.722Z,47.80
2017-12-19T22:40:07.800Z,47.80
2017-12-19T22:42:36.549Z,47.90
2017-12-19T22:45:04.567Z,47.90
2017-12-19T22:47:34.214Z,48.00
2017-12-19T22:50:02.252Z,48.00
2017-12-19T22:52:31.099Z,47.90
2017-12-19T22:54:59.070Z,48.00
2017-12-19T22:57:27.053Z,47.80
2017-12-19T22:59:55.826Z,47.80
2017-12-19T23:02:23.799Z,48.40
2017-12-19T23:04:51.786Z,47.80
2017-12-19T23:07:19.770Z,47.80
2017-12-19T23:09:48.514Z,47.90
2017-12-19T23:12:17.320Z,47.90
2017-12-19T23:14:45.291Z,48.50
2017-12-19T23:17:13.278Z,47.90
2017-12-19T23:19:41.307Z,47.80
2017-12-19T23:22:09.306Z,47.90
2017-12-19T23:24:38.394Z,48.00
2017-12-19T23:27:06.436Z,47.80
2017-12-19T23:29:34.436Z,47.70
2017-12-19T23:32:02.438Z,47.60
2017-12-19T23:34:31.211Z,47.60
2017-12-19T23:36:59.226Z,47.60
2017-12-19T23:39:27.199Z,47.60
2017-12-19T23:41:55.201Z,47.60
2017-12-19T23:44:23.196Z,47.60
2017-12-19T23:46:51.982Z,47.70
2017-12-19T23:49:20.767Z,47.70
2017-12-19T23:51:48.784Z,47.70
2017-12-19T23:54:16.763Z,47.70
2017-12-19T23:56:44.751Z,47.70
2017-12-19T23:59:12.822Z,47.70
